Wild Boar Gully, Santa Catalina Island Weather observations

Data are for 10 minute period ending at time listed.
 Day   Time   Solar   Ave.   Ave.  Ave.  Vector    Max.   Stn.    Total
  of    of     Rad.   Air    Rel.  Wind   Wind     Wind   Baro.  Precip.
Year   Day            Temp.  Hum.  Speed  Dir.     Gust   Pres.         
2015   (PST)   W/m2    F      %     mph   deg.      mph    mb.     in.  
------------------------------------------------------------------------
 210    8:50  533.0    66   84.2     6    225.6     8.4    999.0   0.00  
 210    9:00  544.0    66   85.4     6    224.4     8.4    999.0   0.00  
 210    9:10  555.0    66   84.8     6    224.0     8.4    999.0   0.00  
 210    9:20  541.0    66   84.7     6    242.2     8.4    999.0   0.00  
 210    9:30  539.0    66   84.4     5    234.6     8.4    999.0   0.00  
 210    9:40  605.0    66   84.9     6    230.8     7.8    999.0   0.00  
 210    9:50  659.0    67   83.1     6    233.6    10.2    999.0   0.00  
 210   10:00  674.0    67   83.2     7    234.1    11.3    999.0   0.00  
 210   10:10  660.0    67   84.0     7    233.6    10.2    999.0   0.00  
 210   10:20  676.0    67   83.6     6    235.6    10.2    999.0   0.00  
 210   10:30  661.0    67   83.2     8    234.8    11.9    999.0   0.00  
 210   10:40  756.0    67   83.7     8    233.5    11.9    999.0   0.00  
 210   10:50  715.0    68   81.3     7    232.5    10.8    999.0   0.00  
 210   11:00  655.0    67   83.1     7    234.2    10.8    999.0   0.00  
 210   11:10  788.0    67   82.5     7    237.2     9.6    999.0   0.00  
 210   11:20  699.0    68   82.2     7    234.3    10.2    999.0   0.00  
 210   11:30  749.0    67   82.9     8    237.0    12.5    999.0   0.00  
 210   11:40  722.0    67   83.2     9    233.2    12.5    999.0   0.00  
 210   11:50  780.0    67   82.9     9    235.5    12.5    999.0   0.00  
 210   12:00  787.0    68   82.2    10    234.5    13.7    999.0   0.00  
 210   12:10  740.0    67   83.7    10    234.6    16.1    999.0   0.00  
 210   12:20  797.0    67   82.3    11    235.2    14.9    999.0   0.00  
 210   12:30  779.0    67   82.3    12    235.5    17.3    999.0   0.00  
 210   12:40  776.0    67   82.3    12    235.2    19.1    999.0   0.00  
 210   12:50  769.0    68   80.8    11    235.7    19.1    999.0   0.00  
 210   13:00  768.0    68   80.6    12    237.3    19.1    999.0   0.00  
 210   13:10  757.0    68   81.1    12    235.8    19.1    999.0   0.00  
 210   13:20  747.0    69   79.5    12    238.8    18.5    999.0   0.00  
 210   13:30  733.0    69   79.3    12    239.9    20.9    999.0   0.00  
 210   13:40  719.0    69   78.2    13    252.7    22.7    999.0   0.00  
 210   13:50  703.0    69   79.1    14    257.1    23.9    999.0   0.00  
 210   14:00  687.0    69   78.9    14    259.7    21.5    999.0   0.00  
 210   14:10  671.0    69   78.8    14    256.0    19.7    999.0   0.00  
 210   14:20  654.0    69   78.5    14    256.0    19.7    999.0   0.00  
 210   14:30  636.0    69   78.3    13    254.6    20.3    999.0   0.00  
 210   14:40  616.0    69   79.6    13    250.1    20.9    999.0   0.00  
 210   14:50  595.0    69   79.8    15    250.4    21.5    999.0   0.00  
 210   15:00  574.0    69   79.4    16    262.9    21.5    999.0   0.00  
 210   15:10  553.0    69   78.6    14    260.5    19.7    999.0   0.00  
 210   15:20  531.0    69   78.1    16    269.6    21.5    999.0   0.00  
 210   15:30  509.0    70   77.8    15    264.1    20.3    999.0   0.00  
 210   15:40  486.0    71   75.9    12    261.5    19.1    999.0   0.00  
 210   15:50  461.0    71   76.1    13    275.3    17.9    999.0   0.00  
 210   16:00  436.0    71   75.8    12    281.0    18.5    999.0   0.00  
 210   16:10  411.0    70   77.3    13    286.5    16.7    999.0   0.00  
 210   16:20  384.0    70   76.9    13    288.0    16.1    999.0   0.00  
 210   16:30  357.0    72   74.6    11    285.5    15.5    999.0   0.00  
 210   16:40  330.0    71   76.3    12    277.8    17.9    999.0   0.00  
 210   16:50  303.0    71   78.4    12    280.2    16.7    999.0   0.00  
 210   17:00  275.0    70   79.4    12    286.8    17.3    999.0   0.00  
 210   17:10  247.0    70   80.7    12    286.0    17.3    999.0   0.00  
 210   17:20  220.0    70   80.5    10    285.3    13.7    999.0   0.00  
 210   17:30  193.0    70   80.5    10    282.8    14.9    999.0   0.00  
 210   17:40  166.0    69   82.5    11    273.0    16.7    999.0   0.00  
 210   17:50  140.0    68   84.9    12    279.0    16.7    999.0   0.00  
 210   18:00  116.0    68   84.7    10    284.5    14.3    999.0   0.00  
 210   18:10   91.0    68   85.5     9    284.7    13.7    999.0   0.00  
 210   18:20   67.0    68   84.1     6    286.1    11.3    999.0   0.00  
 210   18:30   43.0    67   86.5     7    279.5    11.9    999.0   0.00  
 210   18:40   25.0    66   88.0     6    276.5    11.9    999.0   0.00  
 210   18:50   12.0    65   89.9     9    277.2    14.9    999.0   0.00  
 210   19:00    5.0    65   91.0    10    281.7    13.7    999.0   0.00  
 210   19:10    2.0    65   89.7     6    288.0    11.3    999.0   0.00  
 210   19:20    0.0    65   89.4     6    281.5    11.9    999.0   0.00  
 210   19:30    0.0    66   88.9     2    306.2     4.8    999.0   0.00  
 210   19:40    0.0    65   88.9     2    278.0     5.4    999.0   0.00  
 210   19:50    0.0    65   89.1     4    353.6    10.2    999.0   0.00  
 210   20:00    0.0    66   88.8     5    337.9    10.8    999.0   0.00  
 210   20:10    0.0    65   90.7     5    264.2     7.8    999.0   0.00  
 210   20:20    0.0    65   91.3     6    273.4    11.3    999.0   0.00  
 210   20:30    0.0    64   92.8     6    286.8    11.3    999.0   0.00  
 210   20:40    0.0    64   92.5     6    283.6     9.0    999.0   0.00  
 210   20:50    0.0    64   92.7     6    271.4     9.0    999.0   0.00  
 210   21:00    0.0    64   92.8     6    277.2     9.6    999.0   0.00  
 210   21:10    0.0    64   92.9     6    284.0     9.6    999.0   0.00  
 210   21:20    0.0    64   92.9     6    293.2     9.6    999.0   0.00  
 210   21:30    0.0    64   92.9     4    297.0     9.0    999.0   0.00  
 210   21:40    0.0    64   92.9     7    284.8    10.2    999.0   0.00  
 210   21:50    0.0    64   93.1     5    278.0    10.2    999.0   0.00  
 210   22:00    0.0    64   92.9     5    330.9     9.0    999.0   0.00  
 210   22:10    0.0    64   92.7     7     29.7    11.3    999.0   0.00  
 210   22:20    0.0    64   92.4     7     23.1    10.8    999.0   0.00  
 210   22:30    0.0    64   92.0     4     12.2     7.2    999.0   0.00  
 210   22:40    0.0    64   92.0     4     31.0     9.0    999.0   0.00  
 210   22:50    0.0    64   92.5     7     31.9    10.8    999.0   0.00  
 210   23:00    0.0    64   92.0     5     35.0     8.4    999.0   0.00  
 210   23:10    0.0    64   91.9     2     42.8     4.2    999.0   0.00  
 210   23:20    0.0    64   92.0     3     21.6     5.4    999.0   0.00  
 210   23:30    0.0    64   91.7     4     32.9     6.0    999.0   0.00  
 210   23:40    0.0    65   91.2     2     77.1     3.0    999.0   0.00  
 210   23:50    0.0    64   91.4     1     93.2     1.8    999.0   0.00  
 211    0:00    0.0    64   91.7     1    103.5     2.4    999.0   0.00  
 211    0:10    0.0    64   92.0     4     23.9     7.2    999.0   0.00  
 211    0:20    0.0    64   92.4     3     25.1     5.4    999.0   0.00  
 211    0:30    0.0    64   92.4     2    345.7     3.0    999.0   0.00  
 211    0:40    0.0    64   92.3     4    280.5     6.0    999.0   0.00  
 211    0:50    0.0    64   93.0     4    308.7     6.6    999.0   0.00  
 211    1:00    0.0    64   92.5     3     23.1     7.2    999.0   0.00  
 211    1:10    0.0    64   92.5     2     42.7     4.8    999.0   0.00  
 211    1:20    0.0    64   92.5     5     47.8     9.6    999.0   0.00  
 211    1:30    0.0    64   92.4     8     37.0    12.5    999.0   0.00  
 211    1:40    0.0    64   92.3     7     35.0    11.9    999.0   0.00  
 211    1:50    0.0    64   92.3     8     33.0    13.7    999.0   0.00  
 211    2:00    0.0    64   92.2     6     26.8    11.9    999.0   0.00  
 211    2:10    0.0    64   92.7     6     28.9    11.9    999.0   0.00  
 211    2:20    0.0    64   92.4     4     17.1     9.6    999.0   0.00  
 211    2:30    0.0    64   92.3     2    230.8     4.8    999.0   0.00  
 211    2:40    0.0    64   92.5     2    108.0     3.0    999.0   0.00  
 211    2:50    0.0    64   92.6     1    340.3     2.4    999.0   0.00  
 211    3:00    0.0    64   92.8     1     84.1     2.4    999.0   0.00  
 211    3:10    0.0    64   92.9     1     68.6     2.4    999.0   0.00  
 211    3:20    0.0    64   93.1     1     76.3     2.4    999.0   0.00  
 211    3:30    0.0    64   93.1     1    130.8     1.8    999.0   0.00  
 211    3:40    0.0    64   93.1     1     39.7     1.8    999.0   0.00  
 211    3:50    0.0    64   93.1     1     70.4     0.6    999.0   0.00  
 211    4:00    0.0    64   93.1     1     91.4     0.6    999.0   0.00  
 211    4:10    0.0    64   93.0     1     43.7     1.2    999.0   0.00  
 211    4:20    0.0    63   93.2     1     61.4     2.4    999.0   0.00  
 211    4:30    0.0    63   93.5     1     83.3     2.4    999.0   0.00  
 211    4:40    0.0    64   93.5     2     89.9     2.4    999.0   0.00  
 211    4:50    0.0    64   93.5     2     77.8     3.0    999.0   0.00  
 211    5:00    0.0    64   93.6     3     97.9     3.6    999.0   0.00  
 211    5:10    1.0    64   93.7     2     83.6     2.4    999.0   0.00  
 211    5:20    5.0    64   93.9     2    144.6     3.0    999.0   0.00  
 211    5:30    8.0    64   94.1     1     55.4     3.0    999.0   0.00  
 211    5:40   15.0    64   94.4     5     33.4     7.8    999.0   0.00  
 211    5:50   31.0    64   95.0     2     30.5     6.0    999.0   0.00  
 211    6:00   49.0    65   94.5     3    270.5     6.0    999.0   0.00  
 211    6:10   33.0    65   94.6     4    302.0     7.2    999.0   0.00  
 211    6:20   32.0    65   94.7     3    359.3     6.0    999.0   0.00  
 211    6:30   54.0    65   94.6     6    274.9    11.3    999.0   0.00  
 211    6:40  193.0    65   94.6     7    280.5    10.2    999.0   0.00  
 211    6:50  116.0    65   94.1     9    273.6    13.1    999.0   0.00  
 211    7:00  138.0    65   94.2     8    273.9    13.1    999.0   0.00  
 211    7:10  123.0    65   93.6     7    270.6    10.8    999.0   0.00  
 211    7:20  114.0    65   93.5     8    267.3    11.3    999.0   0.00  
 211    7:30  111.0    65   93.5     8    274.3    10.2    999.0   0.00  
 211    7:40  108.0    65   93.4     8    268.8    11.3    999.0   0.00  
 211    7:50  121.0    66   92.7     8    266.2    12.5    999.0   0.00  
 211    8:00  127.0    66   92.5     8    270.1    11.9    999.0   0.00  
 211    8:10  149.0    66   92.0     8    267.1    12.5    999.0   0.00  
 211    8:20  186.0    67   90.8     9    268.1    12.5    999.0   0.00  
 211    8:30  205.0    67   90.3     9    266.6    11.9    999.0   0.00  
 211    8:40  342.0    68   89.0     6    264.4    11.3    999.0   0.00  

Return to Wild Boar Gully graphs page.


Western Regional Climate Center,wrcc@dri.edu